East Alamosa, Colorado
Current Conditions -  °F | °C
As of 4:11 PM on Thursday 18 Dec 2014 (Local Time) from KALS Reporting Station
Scattered Clouds Scattered Clouds  
Wind Chill: 29°   Ceiling: Unl
Heat Index: 29°   Visibility: 10mi
Dew Point: 21°   Wind: 0mph
Humidity: 72%   Direction: NA
Pressure: 30.06"   Gusts: NA
Location:  37.469°N, 105.836°W
Report Text: KALS 182311Z AUTO 00000KT 10SM SCT021 M02/M06 A3006 RMK AO2 T10171061
Loading
Personal Weather Stations






























Interactive Weather Map New forecast layout! Learn more

10-Day Weather Forecast

Advertisements
Track Severe Weather on mobile